Time;durP1;ratioP1;P1;durP2;ratioP2;P2;SDS_P1;SDS_P2;PMS_P1;PMS_P2;Temp;Humidity;BMP_temperature;BMP_pressure;BME280_temperature;BME280_humidity;BME280_pressure;Samples;Min_cycle;Max_cycle;Signal;HPM_P1;HPM_P2
2021/04/24 00:02:25;;;;;;;13.75;5.85;;;7.30;1.00;;;;;;5107166;28;20075;-66
2021/04/24 00:04:52;;;;;;;8.32;5.13;;;7.50;1.00;;;;;;5107593;28;20054;-70
2021/04/24 00:07:20;;;;;;;11.77;5.60;;;7.40;1.00;;;;;;5109157;28;20050;-74
2021/04/24 00:09:48;;;;;;;13.00;5.90;;;7.50;1.00;;;;;;5113676;28;20138;-75
2021/04/24 00:12:16;;;;;;;11.20;5.55;;;7.40;1.00;;;;;;5110635;28;20044;-75
2021/04/24 00:14:43;;;;;;;14.75;5.85;;;7.30;1.00;;;;;;5109469;28;20047;-75
2021/04/24 00:17:10;;;;;;;9.75;5.47;;;7.30;1.00;;;;;;5111932;28;20039;-74
2021/04/24 00:19:37;;;;;;;11.10;5.90;;;7.20;1.00;;;;;;5106771;28;20089;-75
2021/04/24 00:22:03;;;;;;;8.65;5.22;;;7.20;1.00;;;;;;5107289;28;20044;-75
2021/04/24 00:24:31;;;;;;;11.30;5.03;;;7.20;1.00;;;;;;5111626;28;20048;-75
2021/04/24 00:26:58;;;;;;;9.48;5.22;;;7.10;1.00;;;;;;5105757;28;20100;-75
2021/04/24 00:29:25;;;;;;;12.82;5.55;;;7.10;1.00;;;;;;5112599;28;20051;-74
2021/04/24 00:31:52;;;;;;;10.70;5.00;;;7.00;1.00;;;;;;5109822;28;20146;-73
2021/04/24 00:34:19;;;;;;;10.40;5.43;;;7.00;1.00;;;;;;5110841;28;20139;-75
2021/04/24 00:36:45;;;;;;;10.27;5.43;;;6.90;1.00;;;;;;5109093;28;20505;-76
2021/04/24 00:39:12;;;;;;;9.90;5.13;;;6.80;1.00;;;;;;5113014;28;20055;-75
2021/04/24 00:41:40;;;;;;;9.95;5.97;;;6.80;1.00;;;;;;5106703;28;20055;-75
2021/04/24 00:44:07;;;;;;;10.70;5.53;;;6.80;1.00;;;;;;5107259;28;20058;-74
2021/04/24 00:46:33;;;;;;;9.98;5.53;;;6.80;1.00;;;;;;5105274;28;20134;-74
2021/04/24 00:49:00;;;;;;;11.43;6.05;;;6.80;1.00;;;;;;5112711;28;20051;-74
2021/04/24 00:51:30;;;;;;;14.43;5.57;;;6.70;1.00;;;;;;5106710;28;20797;-74
2021/04/24 00:53:57;;;;;;;8.75;5.32;;;6.70;1.00;;;;;;5107032;28;20050;-74
2021/04/24 00:56:24;;;;;;;13.55;6.15;;;6.70;1.00;;;;;;5106922;28;20111;-74
2021/04/24 00:58:52;;;;;;;9.95;5.60;;;6.70;1.00;;;;;;5110465;28;20047;-74
2021/04/24 01:01:19;;;;;;;9.35;5.50;;;6.60;1.00;;;;;;5106815;28;20052;-74
2021/04/24 01:03:46;;;;;;;11.10;5.97;;;6.60;1.00;;;;;;5107741;28;20052;-74
2021/04/24 01:06:13;;;;;;;10.02;5.40;;;6.50;1.00;;;;;;5107182;28;20069;-74
2021/04/24 01:08:40;;;;;;;12.70;5.88;;;6.50;1.00;;;;;;5112947;28;20062;-75
2021/04/24 01:11:07;;;;;;;13.57;6.25;;;6.50;1.00;;;;;;5112573;28;20048;-75
2021/04/24 01:13:34;;;;;;;8.75;5.47;;;6.50;1.00;;;;;;5109786;28;20529;-75
2021/04/24 01:16:02;;;;;;;12.18;6.22;;;6.50;1.00;;;;;;5108699;28;20079;-75
2021/04/24 01:18:29;;;;;;;9.93;5.60;;;6.50;1.00;;;;;;5113209;28;20043;-74
2021/04/24 01:20:58;;;;;;;10.93;6.10;;;6.50;1.00;;;;;;5111188;28;20501;-76
2021/04/24 01:23:26;;;;;;;10.65;6.07;;;6.50;1.00;;;;;;5109826;28;20054;-75
2021/04/24 01:25:53;;;;;;;14.95;6.50;;;6.40;1.00;;;;;;5103247;28;20945;-74
2021/04/24 01:28:20;;;;;;;11.07;6.20;;;6.30;1.00;;;;;;5110866;28;20124;-74
2021/04/24 01:30:47;;;;;;;9.30;5.97;;;6.30;1.00;;;;;;5109766;28;20050;-74
2021/04/24 01:33:15;;;;;;;9.93;5.75;;;6.30;1.00;;;;;;5106744;28;20509;-75
2021/04/24 01:35:43;;;;;;;17.42;6.30;;;6.20;1.00;;;;;;5108890;28;20058;-75
2021/04/24 01:38:11;;;;;;;12.10;6.30;;;6.20;1.00;;;;;;5111628;28;20039;-75
2021/04/24 01:40:39;;;;;;;15.18;6.18;;;6.20;1.00;;;;;;5111525;28;20130;-74
2021/04/24 01:43:07;;;;;;;11.65;6.25;;;6.10;1.00;;;;;;5107672;28;20055;-74
2021/04/24 01:45:34;;;;;;;12.07;6.55;;;6.00;1.00;;;;;;5109338;28;20490;-75
2021/04/24 01:48:05;;;;;;;9.90;6.95;;;6.10;1.00;;;;;;5110619;28;20097;-75
2021/04/24 01:50:34;;;;;;;12.73;6.20;;;6.10;1.00;;;;;;5112325;28;20052;-74
2021/04/24 01:53:04;;;;;;;11.80;6.75;;;6.10;1.00;;;;;;5108642;28;20062;-75
2021/04/24 01:55:33;;;;;;;14.82;6.18;;;6.00;1.00;;;;;;5108555;28;20055;-75
2021/04/24 01:58:06;;;;;;;9.98;6.22;;;6.00;1.00;;;;;;5111020;28;20048;-75
2021/04/24 02:00:36;;;;;;;11.77;6.20;;;6.00;1.00;;;;;;5111977;28;20046;-74
2021/04/24 02:03:06;;;;;;;14.60;6.53;;;6.00;1.00;;;;;;5108195;28;20055;-75
2021/04/24 02:05:33;;;;;;;10.60;5.90;;;5.90;1.00;;;;;;5108339;28;20522;-74
2021/04/24 02:08:04;;;;;;;10.02;6.40;;;5.90;1.00;;;;;;5111029;28;20404;-75
2021/04/24 02:10:31;;;;;;;11.35;6.68;;;5.90;1.00;;;;;;5110863;28;20134;-74
2021/04/24 02:13:01;;;;;;;12.82;7.07;;;5.90;1.00;;;;;;5108524;28;20048;-74
2021/04/24 02:15:28;;;;;;;12.07;6.82;;;5.90;1.00;;;;;;5103906;28;20044;-74
2021/04/24 02:17:55;;;;;;;13.20;6.32;;;5.80;1.00;;;;;;5109920;28;20516;-74
2021/04/24 02:20:24;;;;;;;12.32;5.93;;;5.80;1.00;;;;;;5109862;28;20086;-74
2021/04/24 02:22:51;;;;;;;13.43;6.05;;;5.70;1.00;;;;;;5107971;28;20048;-74
2021/04/24 02:25:19;;;;;;;10.00;6.28;;;5.80;1.00;;;;;;5108567;27;20130;-74
2021/04/24 02:27:47;;;;;;;15.73;7.53;;;5.80;1.00;;;;;;5110153;28;20050;-75
2021/04/24 02:30:17;;;;;;;14.68;7.32;;;5.70;1.00;;;;;;5111369;28;20476;-74
2021/04/24 02:32:44;;;;;;;14.23;7.63;;;5.60;1.00;;;;;;5107761;28;20532;-73
2021/04/24 02:35:14;;;;;;;15.13;6.88;;;5.50;1.00;;;;;;5105436;28;20043;-74
2021/04/24 02:37:41;;;;;;;11.30;6.90;;;5.50;1.00;;;;;;5108682;28;20039;-75
2021/04/24 02:40:10;;;;;;;12.80;7.13;;;5.40;1.00;;;;;;5111188;28;20053;-75
2021/04/24 02:42:37;;;;;;;14.88;7.00;;;5.30;1.00;;;;;;5107376;28;20383;-75
2021/04/24 02:45:07;;;;;;;12.68;7.47;;;5.30;1.00;;;;;;5107365;28;20054;-75
2021/04/24 02:47:35;;;;;;;12.38;7.10;;;5.20;1.00;;;;;;5108907;28;20051;-75
2021/04/24 02:50:05;;;;;;;12.25;7.03;;;5.20;1.00;;;;;;5108878;28;20075;-74
2021/04/24 02:52:32;;;;;;;17.08;10.90;;;5.20;1.00;;;;;;5105703;28;20043;-75
2021/04/24 02:54:58;;;;;;;13.95;8.15;;;5.20;1.00;;;;;;5101947;28;20051;-75
2021/04/24 02:57:25;;;;;;;15.18;7.47;;;5.30;1.00;;;;;;5109702;28;20039;-75
2021/04/24 02:59:52;;;;;;;16.92;8.65;;;5.30;1.00;;;;;;5111053;28;20040;-75
2021/04/24 03:02:20;;;;;;;15.90;7.72;;;5.20;1.00;;;;;;5107233;28;20394;-75
2021/04/24 03:04:47;;;;;;;16.02;7.80;;;5.30;1.00;;;;;;5104667;28;20052;-75
2021/04/24 03:07:14;;;;;;;13.32;7.35;;;5.30;1.00;;;;;;5108721;28;20413;-75
2021/04/24 03:09:41;;;;;;;12.88;7.45;;;5.30;1.00;;;;;;5111111;28;20054;-74
2021/04/24 03:12:08;;;;;;;14.20;6.80;;;5.30;1.00;;;;;;5106924;28;20493;-74
2021/04/24 03:14:35;;;;;;;15.52;7.03;;;5.40;1.00;;;;;;5108789;28;20043;-74
2021/04/24 03:17:02;;;;;;;12.88;6.82;;;5.40;1.00;;;;;;5106367;28;20506;-74
2021/04/24 03:19:29;;;;;;;12.20;6.50;;;5.40;1.00;;;;;;5108446;28;20054;-74
2021/04/24 03:21:57;;;;;;;12.38;6.32;;;5.40;1.00;;;;;;5106370;28;20057;-74
2021/04/24 03:24:24;;;;;;;14.20;7.40;;;5.40;1.00;;;;;;5109109;28;20054;-75
2021/04/24 03:26:51;;;;;;;13.70;7.35;;;5.40;1.00;;;;;;5107276;28;20090;-75
2021/04/24 03:29:18;;;;;;;9.85;6.90;;;5.30;1.00;;;;;;5110804;28;20044;-75
2021/04/24 03:31:45;;;;;;;11.18;6.85;;;5.30;1.00;;;;;;5102472;28;20039;-74
2021/04/24 03:34:12;;;;;;;15.32;6.95;;;5.20;1.00;;;;;;5112976;28;20055;-75
2021/04/24 03:36:39;;;;;;;12.88;7.32;;;5.00;1.00;;;;;;5110546;28;20104;-74
2021/04/24 03:39:07;;;;;;;14.68;7.45;;;4.80;1.00;;;;;;5113606;28;20047;-75
2021/04/24 03:41:34;;;;;;;17.60;8.02;;;4.80;1.00;;;;;;5111099;28;20061;-75
2021/04/24 03:44:01;;;;;;;11.60;7.60;;;4.60;1.00;;;;;;5114577;28;20048;-74
2021/04/24 03:46:28;;;;;;;14.35;8.43;;;4.50;1.00;;;;;;5110050;28;20513;-74
2021/04/24 03:48:54;;;;;;;14.38;8.43;;;4.40;1.00;;;;;;5112865;28;20040;-74
2021/04/24 03:51:21;;;;;;;16.20;7.82;;;4.30;1.00;;;;;;5110072;28;20413;-74
2021/04/24 03:53:48;;;;;;;16.73;7.65;;;4.20;1.00;;;;;;5112884;28;20075;-74
2021/04/24 03:56:17;;;;;;;19.50;8.98;;;4.20;1.00;;;;;;5109795;28;20056;-74
2021/04/24 03:58:44;;;;;;;21.25;9.15;;;4.10;1.00;;;;;;5114222;28;20058;-73
2021/04/24 04:01:10;;;;;;;14.82;7.90;;;4.10;1.00;;;;;;5113389;28;20054;-75
2021/04/24 04:03:38;;;;;;;15.45;7.70;;;4.10;1.00;;;;;;5112203;28;20104;-75
2021/04/24 04:06:05;;;;;;;13.43;7.47;;;4.10;1.00;;;;;;5111012;28;20083;-73
2021/04/24 04:08:31;;;;;;;21.00;8.73;;;4.10;1.00;;;;;;5113093;28;20489;-74
2021/04/24 04:10:59;;;;;;;19.50;8.38;;;4.20;1.00;;;;;;5113773;28;20047;-74
2021/04/24 04:13:27;;;;;;;13.73;7.70;;;4.20;1.00;;;;;;5109879;28;20515;-74
2021/04/24 04:15:54;;;;;;;18.88;8.18;;;4.40;1.00;;;;;;5111344;28;20048;-73
2021/04/24 04:18:21;;;;;;;17.35;8.85;;;4.40;1.00;;;;;;5112719;28;20047;-74
2021/04/24 04:20:50;;;;;;;14.00;7.97;;;4.40;1.00;;;;;;5113394;28;20127;-75
2021/04/24 04:23:22;;;;;;;16.60;7.80;;;4.50;1.00;;;;;;5110420;28;20055;-74
2021/04/24 04:25:50;;;;;;;11.95;7.65;;;4.40;1.00;;;;;;5108090;28;20580;-74
2021/04/24 04:28:18;;;;;;;15.20;8.20;;;4.40;1.00;;;;;;5112606;28;20040;-73
2021/04/24 04:30:46;;;;;;;16.83;8.38;;;4.50;1.00;;;;;;5113922;28;20047;-74
2021/04/24 04:33:13;;;;;;;13.32;7.43;;;4.50;1.00;;;;;;5110319;28;20050;-75
2021/04/24 04:35:41;;;;;;;12.88;7.13;;;4.50;1.00;;;;;;5110554;28;20051;-75
2021/04/24 04:38:09;;;;;;;13.48;7.90;;;4.80;1.00;;;;;;5109327;28;20497;-75
2021/04/24 04:40:36;;;;;;;13.20;7.97;;;5.20;1.00;;;;;;5112713;28;20055;-74
2021/04/24 04:43:04;;;;;;;15.85;8.20;;;5.50;1.00;;;;;;5110343;28;20044;-74
2021/04/24 04:45:31;;;;;;;17.23;7.75;;;6.10;1.00;;;;;;5108925;28;20047;-75
2021/04/24 04:48:00;;;;;;;14.00;7.80;;;6.50;1.00;;;;;;5112139;28;20417;-74
2021/04/24 04:50:29;;;;;;;13.20;7.65;;;6.30;1.00;;;;;;5113210;28;20524;-75
2021/04/24 04:52:57;;;;;;;15.75;7.97;;;6.70;1.00;;;;;;5107531;28;20052;-75
2021/04/24 04:55:24;;;;;;;10.98;7.20;;;7.00;1.00;;;;;;5110187;28;20400;-75
2021/04/24 04:57:51;;;;;;;11.32;7.10;;;7.10;1.00;;;;;;5108895;28;20051;-75
2021/04/24 05:00:20;;;;;;;12.23;7.22;;;7.10;1.00;;;;;;5113284;28;20126;-75
2021/04/24 05:02:48;;;;;;;9.88;6.63;;;7.00;1.00;;;;;;5109281;28;20536;-75
2021/04/24 05:05:17;;;;;;;12.73;6.68;;;6.90;1.00;;;;;;5106319;28;20060;-73
2021/04/24 05:07:45;;;;;;;16.20;7.15;;;7.10;1.00;;;;;;5111843;28;20048;-75
2021/04/24 05:10:21;;;;;;;14.80;7.20;;;7.30;1.00;;;;;;5112713;28;20062;-74
2021/04/24 05:12:49;;;;;;;15.30;7.95;;;8.00;1.00;;;;;;5109550;28;20075;-75
2021/04/24 05:15:16;;;;;;;15.38;7.72;;;8.80;1.00;;;;;;5110008;28;20166;-75
2021/04/24 05:17:43;;;;;;;12.65;5.93;;;9.80;1.00;;;;;;5111789;28;20130;-75
2021/04/24 05:20:11;;;;;;;12.13;6.22;;;10.30;1.00;;;;;;5112798;28;20044;-75
2021/04/24 05:22:39;;;;;;;12.43;6.57;;;10.30;1.00;;;;;;5109035;28;20079;-75
2021/04/24 05:25:07;;;;;;;15.27;6.28;;;10.80;1.00;;;;;;5109339;28;20441;-75
2021/04/24 05:27:35;;;;;;;12.50;7.32;;;10.80;1.00;;;;;;5111344;27;20130;-75
2021/04/24 05:30:04;;;;;;;13.18;6.82;;;11.30;1.00;;;;;;5112642;28;20050;-74
2021/04/24 05:32:31;;;;;;;14.02;7.82;;;11.50;1.00;;;;;;5106984;28;20065;-74
2021/04/24 05:34:57;;;;;;;13.05;7.75;;;11.20;1.00;;;;;;5108610;28;20035;-75
2021/04/24 05:37:24;;;;;;;13.43;7.45;;;11.10;1.00;;;;;;5110307;28;20044;-75
2021/04/24 05:39:53;;;;;;;14.43;7.55;;;10.40;1.00;;;;;;5111996;28;20501;-74
2021/04/24 05:42:25;;;;;;;13.52;7.32;;;9.80;1.00;;;;;;5108304;28;20055;-75
2021/04/24 05:44:52;;;;;;;15.00;8.75;;;8.60;1.00;;;;;;5110015;28;20420;-74
2021/04/24 05:47:19;;;;;;;14.93;8.05;;;7.90;1.00;;;;;;5109933;28;20532;-73
2021/04/24 05:49:47;;;;;;;14.40;8.60;;;8.00;1.00;;;;;;5111664;28;20047;-74
2021/04/24 05:52:14;;;;;;;19.33;8.10;;;7.80;1.00;;;;;;5107063;28;20050;-74
2021/04/24 05:54:43;;;;;;;15.50;9.23;;;7.80;1.00;;;;;;5109388;28;20059;-74
2021/04/24 05:57:11;;;;;;;18.38;8.75;;;7.70;1.00;;;;;;5108435;28;20048;-75
2021/04/24 05:59:38;;;;;;;18.77;8.38;;;7.90;1.00;;;;;;5108921;28;20048;-75
2021/04/24 06:02:05;;;;;;;12.15;7.65;;;7.90;1.00;;;;;;5106861;28;20052;-74
2021/04/24 06:04:32;;;;;;;19.15;8.25;;;7.90;1.00;;;;;;5109371;28;20051;-75
2021/04/24 06:07:00;;;;;;;12.77;8.27;;;7.70;1.00;;;;;;5109340;28;20054;-75
2021/04/24 06:09:27;;;;;;;15.93;8.18;;;8.00;1.00;;;;;;5111257;28;20058;-74
2021/04/24 06:11:54;;;;;;;11.65;8.05;;;8.20;1.00;;;;;;5108072;28;20068;-74
2021/04/24 06:14:22;;;;;;;14.05;9.20;;;8.30;1.00;;;;;;5111075;28;20046;-75
2021/04/24 06:16:48;;;;;;;14.93;7.93;;;8.00;1.00;;;;;;5107713;28;20047;-75
2021/04/24 06:19:15;;;;;;;16.58;8.55;;;8.20;1.00;;;;;;5111237;28;20501;-75
2021/04/24 06:21:42;;;;;;;13.15;7.93;;;8.00;1.00;;;;;;5105379;28;20050;-74
2021/04/24 06:24:10;;;;;;;13.35;7.72;;;8.30;1.00;;;;;;5111310;28;20051;-75
2021/04/24 06:26:36;;;;;;;12.00;7.25;;;8.50;1.00;;;;;;5107408;28;20054;-75
2021/04/24 06:29:04;;;;;;;13.07;7.65;;;8.40;1.00;;;;;;5110678;28;20443;-74
2021/04/24 06:31:32;;;;;;;12.68;7.03;;;8.60;1.00;;;;;;5108401;28;20055;-76
2021/04/24 06:33:59;;;;;;;13.25;7.35;;;8.70;1.00;;;;;;5109779;28;20043;-75
2021/04/24 06:36:26;;;;;;;12.93;7.70;;;8.70;1.00;;;;;;5106496;28;20055;-74
2021/04/24 06:38:54;;;;;;;11.35;7.82;;;8.40;1.00;;;;;;5109811;28;20035;-74
2021/04/24 06:41:21;;;;;;;19.00;8.77;;;8.50;1.00;;;;;;5108759;28;20135;-75
2021/04/24 06:43:48;;;;;;;12.45;7.43;;;8.70;1.00;;;;;;5109457;28;20486;-75
2021/04/24 06:46:16;;;;;;;11.75;7.95;;;8.60;1.00;;;;;;5107720;28;20055;-75
2021/04/24 06:48:44;;;;;;;16.98;8.68;;;8.80;1.00;;;;;;5110119;28;20043;-75
2021/04/24 06:51:11;;;;;;;18.45;7.75;;;8.90;1.00;;;;;;5109609;28;20058;-74
2021/04/24 06:53:40;;;;;;;11.90;8.35;;;9.10;1.00;;;;;;5106207;28;20048;-74
2021/04/24 06:56:07;;;;;;;14.40;8.40;;;9.40;1.00;;;;;;5105692;28;20043;-75
2021/04/24 06:58:34;;;;;;;13.65;8.38;;;9.50;1.00;;;;;;5109088;28;20069;-76
2021/04/24 07:01:01;;;;;;;13.70;8.38;;;9.70;1.00;;;;;;5106777;28;20043;-75
2021/04/24 07:03:28;;;;;;;12.05;7.78;;;9.60;1.00;;;;;;5106807;28;20061;-76
2021/04/24 07:05:56;;;;;;;13.15;7.65;;;9.80;1.00;;;;;;5108176;28;20052;-76
2021/04/24 07:08:23;;;;;;;14.07;7.90;;;9.90;1.00;;;;;;5110084;28;20471;-74
2021/04/24 07:10:49;;;;;;;12.15;7.53;;;10.20;1.00;;;;;;5112153;28;20044;-75
2021/04/24 07:13:16;;;;;;;11.93;7.78;;;10.00;1.00;;;;;;5107919;28;20618;-74
2021/04/24 07:15:43;;;;;;;14.80;8.18;;;9.70;1.00;;;;;;5107206;28;20044;-74
2021/04/24 07:18:10;;;;;;;15.43;9.60;;;10.60;1.00;;;;;;5109751;28;20051;-74
2021/04/24 07:20:37;;;;;;;15.93;8.35;;;11.00;1.00;;;;;;5110431;28;20079;-75
2021/04/24 07:23:05;;;;;;;14.98;8.57;;;11.20;1.00;;;;;;5107283;28;20048;-74
2021/04/24 07:25:32;;;;;;;14.88;8.30;;;11.20;1.00;;;;;;5107121;28;20059;-76
2021/04/24 07:27:59;;;;;;;21.42;8.07;;;11.50;1.00;;;;;;5109901;28;20039;-75
2021/04/24 07:30:27;;;;;;;10.80;7.28;;;11.60;1.00;;;;;;5110970;28;20054;-75
2021/04/24 07:32:54;;;;;;;13.25;7.97;;;11.70;1.00;;;;;;5104353;28;20056;-75
2021/04/24 07:35:21;;;;;;;12.05;7.45;;;11.60;1.00;;;;;;5107879;28;20354;-74
2021/04/24 07:37:47;;;;;;;12.73;7.78;;;11.40;1.00;;;;;;5109398;28;20047;-76
2021/04/24 07:40:16;;;;;;;17.45;7.97;;;11.70;1.00;;;;;;5111815;28;20112;-75
2021/04/24 07:42:43;;;;;;;12.38;8.30;;;11.90;1.00;;;;;;5108610;28;20062;-76
2021/04/24 07:45:13;;;;;;;16.67;8.55;;;12.30;1.00;;;;;;5109686;28;20050;-76
2021/04/24 07:47:40;;;;;;;13.75;7.55;;;12.20;1.00;;;;;;5110635;28;20103;-75
2021/04/24 07:50:08;;;;;;;14.23;7.93;;;12.10;1.00;;;;;;5114805;28;20061;-75
2021/04/24 07:52:35;;;;;;;15.00;7.65;;;12.20;1.00;;;;;;5112684;28;20057;-75
2021/04/24 07:55:03;;;;;;;15.02;8.20;;;12.20;1.00;;;;;;5110565;28;20096;-75
2021/04/24 07:57:30;;;;;;;16.60;8.43;;;12.30;1.00;;;;;;5111669;28;20527;-76
2021/04/24 07:59:57;;;;;;;12.68;8.10;;;12.40;1.00;;;;;;5111992;28;20518;-74
2021/04/24 08:02:24;;;;;;;12.52;8.32;;;12.30;1.00;;;;;;5108987;28;20048;-76
2021/04/24 08:04:52;;;;;;;16.88;7.55;;;12.30;1.00;;;;;;5108708;28;20501;-75
2021/04/24 08:07:18;;;;;;;14.60;8.20;;;12.60;1.00;;;;;;5112939;28;20058;-75
2021/04/24 08:09:45;;;;;;;14.40;7.65;;;12.40;1.00;;;;;;5111450;28;20051;-75
2021/04/24 08:12:13;;;;;;;15.00;7.88;;;12.70;1.00;;;;;;5111051;28;20623;-76
2021/04/24 08:14:41;;;;;;;16.27;7.53;;;12.80;1.00;;;;;;5109484;28;20058;-76
2021/04/24 08:17:08;;;;;;;19.20;7.72;;;13.00;1.00;;;;;;5108318;28;20048;-76
2021/04/24 08:19:36;;;;;;;16.10;7.90;;;12.90;1.00;;;;;;5114760;28;20540;-76
2021/04/24 08:22:03;;;;;;;10.98;7.40;;;12.50;1.00;;;;;;5113377;28;20047;-75
2021/04/24 08:24:30;;;;;;;13.82;7.70;;;13.00;1.00;;;;;;5116499;28;20531;-76
2021/04/24 08:26:56;;;;;;;15.18;7.88;;;13.30;1.00;;;;;;5117014;28;20134;-75
2021/04/24 08:29:23;;;;;;;15.05;7.80;;;13.10;1.00;;;;;;5115647;28;20156;-75
2021/04/24 08:31:51;;;;;;;11.73;7.82;;;13.60;1.00;;;;;;5114126;28;20138;-75
2021/04/24 08:34:21;;;;;;;15.77;8.70;;;13.50;1.00;;;;;;5116937;28;20051;-75
2021/04/24 08:36:48;;;;;;;12.30;8.07;;;13.40;1.00;;;;;;5113350;28;20115;-75
2021/04/24 08:39:15;;;;;;;17.17;8.23;;;13.80;1.00;;;;;;5115670;28;20084;-76
2021/04/24 08:41:42;;;;;;;12.10;7.57;;;13.70;1.00;;;;;;5109336;28;20043;-76
2021/04/24 08:44:09;;;;;;;18.02;8.60;;;14.10;1.00;;;;;;5117091;28;20051;-75
2021/04/24 08:46:36;;;;;;;12.77;8.25;;;14.10;1.00;;;;;;5113360;28;20051;-75
2021/04/24 08:49:04;;;;;;;13.18;7.90;;;14.30;1.00;;;;;;5114124;28;20504;-76
2021/04/24 08:51:31;;;;;;;16.05;7.72;;;14.40;1.00;;;;;;5112164;28;20137;-75
2021/04/24 08:53:59;;;;;;;14.23;8.38;;;14.40;1.00;;;;;;5114475;28;20139;-75
2021/04/24 08:56:27;;;;;;;13.77;8.35;;;14.80;1.00;;;;;;5109988;28;20087;-74
2021/04/24 08:58:57;;;;;;;14.73;8.77;;;15.00;1.00;;;;;;5114780;28;20059;-75
2021/04/24 09:01:25;;;;;;;15.93;8.70;;;14.80;1.00;;;;;;5113963;28;20047;-75
2021/04/24 09:03:53;;;;;;;13.73;8.10;;;14.90;1.00;;;;;;5115264;28;20078;-75
2021/04/24 09:06:22;;;;;;;15.75;7.93;;;15.10;1.00;;;;;;5112522;28;20058;-76
2021/04/24 09:08:54;;;;;;;14.35;8.57;;;14.90;1.00;;;;;;5115384;28;20046;-76
2021/04/24 09:11:22;;;;;;;14.07;8.45;;;14.60;1.00;;;;;;5112055;28;20136;-76
2021/04/24 09:14:02;;;;;;;19.00;8.55;;;14.70;1.00;;;;;;5113004;28;20044;-75
2021/04/24 09:16:33;;;;;;;14.65;7.97;;;15.10;1.00;;;;;;5109302;28;20489;-76
2021/04/24 09:19:00;;;;;;;13.73;7.88;;;15.40;1.00;;;;;;5112470;28;20096;-75
2021/04/24 09:21:30;;;;;;;15.30;8.00;;;15.50;1.00;;;;;;5111740;28;20058;-76
2021/04/24 09:23:57;;;;;;;12.82;7.82;;;15.40;1.00;;;;;;5110267;28;20421;-75
2021/04/24 09:26:27;;;;;;;19.33;8.30;;;15.40;1.00;;;;;;5105949;28;20146;-76
2021/04/24 09:29:01;;;;;;;16.45;8.00;;;15.40;1.00;;;;;;5111281;28;20044;-75
2021/04/24 09:31:28;;;;;;;;;;;15.60;1.00;;;;;;5106359;28;20044;-75
2021/04/24 09:33:57;;;;;;;11.43;7.35;;;15.80;1.00;;;;;;5109667;28;19924;-76
2021/04/24 09:36:33;;;;;;;13.07;8.45;;;15.50;1.00;;;;;;5108759;28;20496;-76
2021/04/24 09:39:05;;;;;;;14.48;7.25;;;16.00;1.00;;;;;;5108320;28;20043;-75
2021/04/24 09:41:38;;;;;;;12.75;6.90;;;15.50;1.00;;;;;;5109247;28;20070;-75
2021/04/24 09:44:07;;;;;;;19.50;8.10;;;15.80;1.00;;;;;;5110230;28;20052;-75
2021/04/24 09:46:36;;;;;;;11.63;6.90;;;16.10;1.00;;;;;;5107534;28;20148;-75
2021/04/24 09:49:12;;;;;;;13.10;7.57;;;16.20;1.00;;;;;;5110923;28;20455;-76
2021/04/24 09:51:41;;;;;;;13.80;7.15;;;15.90;1.00;;;;;;5106380;28;20147;-76
2021/04/24 09:54:10;;;;;;;13.95;7.60;;;15.80;1.00;;;;;;5110893;28;20047;-76
2021/04/24 09:56:37;;;;;;;13.05;7.60;;;15.70;1.00;;;;;;5107779;28;20044;-77
2021/04/24 09:59:06;;;;;;;15.65;7.40;;;15.80;1.00;;;;;;5109928;28;20058;-76
2021/04/24 10:01:34;;;;;;;15.10;7.30;;;16.30;1.00;;;;;;5108111;28;20059;-76
2021/04/24 10:04:02;;;;;;;13.88;7.65;;;16.30;1.00;;;;;;5109523;28;20069;-76
2021/04/24 10:06:34;;;;;;;14.50;7.78;;;16.80;1.00;;;;;;5106347;28;20123;-76
2021/04/24 10:09:18;;;;;;;16.65;8.00;;;16.90;1.00;;;;;;5109083;28;20043;-76
2021/04/24 10:11:53;;;;;;;14.15;8.70;;;16.40;1.00;;;;;;5106282;28;20052;-75
2021/04/24 10:14:28;;;;;;;15.70;8.23;;;16.20;1.00;;;;;;5110669;28;20417;-76
2021/04/24 10:16:56;;;;;;;14.73;7.53;;;16.60;1.00;;;;;;5106985;28;20082;-76
2021/04/24 10:19:25;;;;;;;12.45;7.63;;;16.30;1.00;;;;;;5110603;28;20147;-76
2021/04/24 10:21:53;;;;;;;15.95;8.50;;;16.60;1.00;;;;;;5105565;28;20868;-75
2021/04/24 10:24:23;;;;;;;12.93;8.30;;;16.50;1.00;;;;;;5103919;28;20535;-76
2021/04/24 10:26:50;;;;;;;16.55;7.47;;;16.70;1.00;;;;;;5108217;28;20109;-76
2021/04/24 10:29:18;;;;;;;16.83;8.35;;;16.80;1.00;;;;;;5106889;28;20497;-76
2021/04/24 10:31:46;;;;;;;15.57;8.15;;;17.00;1.00;;;;;;5106903;28;20051;-75
2021/04/24 10:34:14;;;;;;;12.07;7.47;;;17.30;1.00;;;;;;5107691;28;20097;-76
2021/04/24 10:36:42;;;;;;;14.95;7.95;;;17.10;1.00;;;;;;5104480;28;20074;-77
2021/04/24 10:39:11;;;;;;;15.10;7.88;;;17.40;1.00;;;;;;5108554;28;20523;-75
2021/04/24 10:41:41;;;;;;;11.95;7.00;;;16.90;1.00;;;;;;5106557;28;20063;-75
2021/04/24 10:44:10;;;;;;;12.80;7.15;;;16.80;1.00;;;;;;5109080;28;20494;-75
2021/04/24 10:46:44;;;;;;;18.60;7.75;;;16.90;1.00;;;;;;5106635;28;20478;-75
2021/04/24 10:49:27;;;;;;;11.75;7.88;;;16.80;1.00;;;;;;5109025;28;20071;-76
2021/04/24 10:51:57;;;;;;;17.88;7.72;;;17.00;1.00;;;;;;5105668;28;20047;-76
2021/04/24 10:54:25;;;;;;;12.95;7.57;;;17.00;1.00;;;;;;5101757;28;20048;-76
2021/04/24 10:56:53;;;;;;;18.80;7.80;;;17.00;1.00;;;;;;5106963;28;20819;-75
2021/04/24 10:59:21;;;;;;;15.15;7.82;;;17.20;1.00;;;;;;5109099;28;20493;-75
2021/04/24 11:02:18;;;;;;;9.70;6.75;;;17.30;1.00;;;;;;5106581;28;20048;-76
2021/04/24 11:04:47;;;;;;;12.13;7.07;;;16.50;1.00;;;;;;5105602;28;20055;-75
2021/04/24 11:07:27;;;;;;;11.07;7.75;;;16.90;1.00;;;;;;5108012;28;20058;-76
2021/04/24 11:10:26;;;;;;;20.52;7.97;;;17.00;1.00;;;;;;5109655;28;20044;-76
2021/04/24 11:13:00;;;;;;;11.90;7.38;;;17.30;1.00;;;;;;5103212;28;20050;-76
2021/04/24 11:15:28;;;;;;;13.45;7.55;;;17.30;1.00;;;;;;5107211;28;20047;-76
2021/04/24 11:17:56;;;;;;;18.30;7.40;;;17.20;1.00;;;;;;5102386;28;20043;-77
2021/04/24 11:20:54;;;;;;;17.52;7.75;;;17.50;1.00;;;;;;5108094;28;20036;-74
2021/04/24 11:23:50;;;;;;;12.90;7.22;;;17.20;1.00;;;;;;5102403;28;20394;-77
2021/04/24 11:26:23;;;;;;;10.93;6.72;;;17.40;1.00;;;;;;5101992;28;20086;-77
2021/04/24 11:29:07;;;;;;;10.63;7.00;;;17.50;1.00;;;;;;5101023;28;20476;-77
2021/04/24 11:31:55;;;;;;;10.60;6.63;;;17.30;1.00;;;;;;5103056;28;20063;-77
2021/04/24 11:34:39;;;;;;;11.18;6.38;;;17.40;1.00;;;;;;5103147;28;20056;-76
2021/04/24 11:37:32;;;;;;;10.27;6.17;;;17.30;1.00;;;;;;5104958;28;20055;-77
2021/04/24 11:40:31;;;;;;;14.30;6.80;;;17.70;1.00;;;;;;5107876;28;20336;-77
2021/04/24 11:43:10;;;;;;;8.82;5.97;;;17.20;1.00;;;;;;5101743;28;20065;-76
2021/04/24 11:45:53;;;;;;;11.85;6.03;;;17.90;1.00;;;;;;5104205;28;20048;-76
2021/04/24 11:48:55;;;;;;;11.35;6.18;;;17.80;1.00;;;;;;5106771;28;20043;-77
2021/04/24 11:51:34;;;;;;;11.07;6.82;;;18.00;1.00;;;;;;5104385;28;20047;-76
2021/04/24 11:54:04;;;;;;;10.30;6.55;;;18.10;1.00;;;;;;5105498;28;20059;-77
2021/04/24 11:56:32;;;;;;;11.52;5.82;;;18.30;1.00;;;;;;5109807;28;20420;-76
2021/04/24 11:58:59;;;;;;;8.98;5.68;;;17.90;1.00;;;;;;5110666;28;20047;-76
2021/04/24 12:01:28;;;;;;;10.15;6.07;;;17.90;1.00;;;;;;5110167;28;20130;-76
2021/04/24 12:03:56;;;;;;;10.00;6.10;;;17.80;1.00;;;;;;5109816;28;20044;-75
2021/04/24 12:06:36;;;;;;;10.18;5.78;;;18.00;1.00;;;;;;5110514;28;20539;-76
2021/04/24 12:09:05;;;;;;;8.85;6.25;;;17.90;1.00;;;;;;5110085;28;20051;-76
2021/04/24 12:11:32;;;;;;;13.25;6.82;;;17.40;1.00;;;;;;5108433;28;20052;-76
2021/04/24 12:13:59;;;;;;;13.90;6.47;;;17.70;1.00;;;;;;5110256;28;20166;-75
2021/04/24 12:16:42;;;;;;;12.02;6.35;;;18.10;1.00;;;;;;5108138;28;20118;-76
2021/04/24 12:19:37;;;;;;;10.13;6.72;;;18.00;1.00;;;;;;5112213;28;20051;-76
2021/04/24 12:22:11;;;;;;;10.10;6.47;;;18.00;1.00;;;;;;5062259;28;20052;-77
2021/04/24 12:24:56;;;;;;;9.18;5.82;;;17.90;1.00;;;;;;5107272;28;20066;-77
2021/04/24 12:27:29;;;;;;;13.35;7.05;;;17.90;1.00;;;;;;5107484;28;20138;-76
2021/04/24 12:29:57;;;;;;;13.90;7.35;;;18.10;1.00;;;;;;5108014;28;20047;-76
2021/04/24 12:32:27;;;;;;;13.85;7.25;;;18.20;1.00;;;;;;5105374;28;20574;-76
2021/04/24 12:34:54;;;;;;;13.77;6.95;;;18.20;1.00;;;;;;5103027;28;20055;-76
2021/04/24 12:37:22;;;;;;;10.32;6.90;;;18.10;1.00;;;;;;5108320;28;20050;-76
2021/04/24 12:40:05;;;;;;;12.52;6.57;;;18.30;1.00;;;;;;5109061;28;20075;-75
2021/04/24 12:42:32;;;;;;;10.55;6.72;;;18.20;1.00;;;;;;5109087;28;20412;-76
2021/04/24 12:44:59;;;;;;;12.52;6.60;;;18.50;1.00;;;;;;5109050;28;20048;-76
2021/04/24 12:47:27;;;;;;;15.05;7.20;;;17.90;1.00;;;;;;5107922;28;20164;-76
2021/04/24 12:49:54;;;;;;;11.50;7.38;;;18.00;1.00;;;;;;5107240;28;20058;-76
2021/04/24 12:52:21;;;;;;;10.32;6.75;;;17.60;1.00;;;;;;5106273;28;20039;-76
2021/04/24 12:55:08;;;;;;;10.52;6.72;;;17.80;1.00;;;;;;5109230;28;20062;-76
2021/04/24 12:57:36;;;;;;;10.60;6.55;;;17.70;1.00;;;;;;5109641;28;20043;-76
2021/04/24 13:00:08;;;;;;;10.15;6.35;;;18.00;1.00;;;;;;5109669;28;20405;-76
2021/04/24 13:02:38;;;;;;;14.65;7.43;;;18.50;1.00;;;;;;5107561;28;20501;-77
2021/04/24 13:05:11;;;;;;;13.18;7.32;;;18.80;1.00;;;;;;5105034;28;20052;-77